Time;durP1;ratioP1;P1;durP2;ratioP2;P2;SDS_P1;SDS_P2;PMS_P1;PMS_P2;Temp;Humidity;BMP_temperature;BMP_pressure;BME280_temperature;BME280_humidity;BME280_pressure;Samples;Min_cycle;Max_cycle;Signal;HPM_P1;HPM_P2
2023/06/22 00:01:55;;;;;;;10.48;7.20;;;21.40;99.90;;;;;;5064811;28;20405;-60
2023/06/22 00:04:21;;;;;;;10.82;8.20;;;21.20;99.90;;;;;;5061722;28;20036;-60
2023/06/22 00:06:46;;;;;;;12.95;8.07;;;21.30;99.90;;;;;;5055840;28;20060;-60
2023/06/22 00:09:12;;;;;;;13.40;8.25;;;21.20;99.90;;;;;;5062227;28;20078;-59
2023/06/22 00:11:38;;;;;;;13.60;8.98;;;21.10;99.90;;;;;;5061511;28;20033;-61
2023/06/22 00:14:04;;;;;;;14.57;8.90;;;21.10;99.90;;;;;;5062489;28;20571;-59
2023/06/22 00:16:32;;;;;;;15.52;9.73;;;21.10;99.90;;;;;;5057402;28;20424;-60
2023/06/22 00:19:00;;;;;;;14.30;8.60;;;21.10;99.90;;;;;;5062878;28;20031;-60
2023/06/22 00:21:26;;;;;;;15.00;9.43;;;21.10;99.90;;;;;;5062923;28;20403;-60
2023/06/22 00:23:51;;;;;;;12.38;9.48;;;21.10;99.90;;;;;;5064396;28;20028;-60
2023/06/22 00:26:17;;;;;;;16.10;8.98;;;21.10;99.90;;;;;;5052791;28;20051;-60
2023/06/22 00:28:43;;;;;;;18.17;9.55;;;21.20;99.90;;;;;;5060667;28;20055;-60
2023/06/22 00:31:08;;;;;;;17.00;10.55;;;21.20;99.90;;;;;;5062718;28;20033;-60
2023/06/22 00:33:34;;;;;;;14.07;10.73;;;21.20;99.90;;;;;;5070329;28;20036;-60
2023/06/22 00:36:00;;;;;;;14.63;9.43;;;21.30;99.90;;;;;;5068632;28;20115;-61
2023/06/22 00:38:25;;;;;;;17.42;11.40;;;21.10;99.90;;;;;;5059509;28;20032;-59
2023/06/22 00:40:51;;;;;;;14.07;10.60;;;21.20;99.90;;;;;;5065439;28;20516;-59
2023/06/22 00:43:16;;;;;;;20.05;11.35;;;21.10;99.90;;;;;;5060246;28;20070;-61
2023/06/22 00:45:42;;;;;;;15.40;11.45;;;21.10;99.90;;;;;;5060100;28;20028;-59
2023/06/22 00:48:08;;;;;;;16.63;11.02;;;21.10;99.90;;;;;;5060066;28;20131;-59
2023/06/22 00:50:35;;;;;;;13.98;11.27;;;21.20;99.90;;;;;;5071243;28;20024;-61
2023/06/22 00:53:08;;;;;;;16.42;11.15;;;21.30;99.90;;;;;;5060280;28;20052;-61
2023/06/22 00:55:42;;;;;;;18.58;11.73;;;21.40;99.90;;;;;;5060551;28;20127;-60
2023/06/22 00:58:10;;;;;;;14.75;11.48;;;21.10;99.90;;;;;;5065848;28;20043;-59
2023/06/22 01:00:36;;;;;;;15.90;11.57;;;21.00;99.90;;;;;;5073276;28;20041;-60
2023/06/22 01:03:02;;;;;;;19.42;12.27;;;21.10;99.90;;;;;;5061952;28;20112;-59
2023/06/22 01:05:31;;;;;;;15.48;11.30;;;21.00;99.90;;;;;;5063043;28;20381;-60
2023/06/22 01:08:25;;;;;;;16.65;11.55;;;20.90;99.90;;;;;;5059106;28;20061;-60
2023/06/22 01:11:15;;;;;;;17.13;12.02;;;20.90;99.90;;;;;;5060752;28;20070;-60
2023/06/22 01:14:21;;;;;;;20.38;11.70;;;20.90;99.90;;;;;;5067981;28;20040;-60
2023/06/22 01:16:48;;;;;;;15.07;10.98;;;21.00;99.90;;;;;;5044194;28;20036;-61
2023/06/22 01:19:35;;;;;;;15.77;11.35;;;21.10;99.90;;;;;;5062565;28;20049;-60
2023/06/22 01:22:02;;;;;;;19.92;10.85;;;21.10;99.90;;;;;;5059610;28;20037;-60
2023/06/22 01:24:41;;;;;;;18.27;11.73;;;21.00;99.90;;;;;;5061931;28;20041;-60
2023/06/22 01:27:36;;;;;;;14.82;10.80;;;21.10;99.90;;;;;;5052729;28;20033;-59
2023/06/22 01:30:05;;;;;;;17.63;11.80;;;21.00;99.90;;;;;;5049117;28;20074;-59
2023/06/22 01:32:35;;;;;;;17.48;11.30;;;21.20;99.90;;;;;;5057834;28;20124;-60
2023/06/22 01:35:04;;;;;;;14.73;10.13;;;21.00;99.90;;;;;;5062841;28;20127;-60
2023/06/22 01:37:32;;;;;;;14.02;10.02;;;20.90;99.90;;;;;;5057601;28;20093;-60
2023/06/22 01:39:59;;;;;;;17.17;11.25;;;21.10;99.90;;;;;;5057536;28;20037;-60
2023/06/22 01:42:25;;;;;;;14.50;10.48;;;21.10;99.90;;;;;;5063215;28;20534;-60
2023/06/22 01:44:55;;;;;;;19.52;11.23;;;21.10;99.90;;;;;;5060535;28;21580;-60
2023/06/22 01:47:21;;;;;;;15.25;10.45;;;20.90;99.90;;;;;;5063320;28;20039;-60
2023/06/22 01:49:48;;;;;;;13.43;10.65;;;21.10;99.90;;;;;;5063708;28;20039;-60
2023/06/22 01:52:14;;;;;;;15.50;10.10;;;21.00;99.90;;;;;;5062881;28;20037;-60
2023/06/22 01:54:40;;;;;;;17.40;10.52;;;20.90;99.90;;;;;;5065597;28;20550;-60
2023/06/22 01:57:06;;;;;;;14.38;10.63;;;21.00;99.90;;;;;;5066601;28;20043;-59
2023/06/22 01:59:45;;;;;;;18.48;11.52;;;20.90;99.90;;;;;;5061283;28;20036;-60
2023/06/22 02:02:15;;;;;;;13.07;11.27;;;21.40;99.90;;;;;;5057171;28;20041;-59
2023/06/22 02:04:51;;;;;;;14.95;10.65;;;21.10;99.90;;;;;;5048960;28;20401;-60
2023/06/22 02:07:18;;;;;;;20.50;10.85;;;21.10;99.90;;;;;;5059424;28;20032;-60
2023/06/22 02:09:47;;;;;;;15.68;10.90;;;21.00;99.90;;;;;;5066565;28;20056;-60
2023/06/22 02:12:16;;;;;;;16.80;10.98;;;21.00;99.90;;;;;;5058060;28;20131;-60
2023/06/22 02:14:43;;;;;;;14.95;11.68;;;20.90;99.90;;;;;;5056668;28;20072;-61
2023/06/22 02:17:09;;;;;;;20.15;11.38;;;20.70;99.90;;;;;;5064421;28;20048;-59
2023/06/22 02:19:40;;;;;;;15.52;11.13;;;20.60;99.90;;;;;;5057700;28;20037;-60
2023/06/22 02:22:06;;;;;;;17.73;10.70;;;20.80;99.90;;;;;;5074555;28;20423;-60
2023/06/22 02:24:33;;;;;;;16.63;10.95;;;20.80;99.90;;;;;;5071521;28;20401;-60
2023/06/22 02:26:59;;;;;;;15.27;11.13;;;20.90;99.90;;;;;;5056912;28;20041;-60
2023/06/22 02:29:26;;;;;;;15.52;11.30;;;20.90;99.90;;;;;;5052654;28;20499;-60
2023/06/22 02:31:52;;;;;;;14.00;11.48;;;20.50;99.90;;;;;;5064162;28;20082;-60
2023/06/22 02:34:18;;;;;;;17.02;12.13;;;20.40;99.90;;;;;;5058752;28;20063;-60
2023/06/22 02:36:51;;;;;;;13.40;10.73;;;20.40;99.90;;;;;;5060466;28;20036;-60
2023/06/22 02:39:22;;;;;;;15.82;11.35;;;20.50;99.90;;;;;;5055898;28;20040;-60
2023/06/22 02:41:52;;;;;;;19.08;11.75;;;20.50;99.90;;;;;;5066183;28;20048;-60
2023/06/22 02:44:18;;;;;;;20.10;12.77;;;20.60;99.90;;;;;;5057234;28;20033;-60
2023/06/22 02:46:44;;;;;;;17.33;11.98;;;20.60;99.90;;;;;;5067657;28;20043;-60
2023/06/22 02:49:10;;;;;;;22.27;12.80;;;20.70;99.90;;;;;;5059732;28;20116;-59
2023/06/22 02:51:39;;;;;;;17.60;12.43;;;20.60;99.90;;;;;;5063467;28;20555;-60
2023/06/22 02:54:05;;;;;;;16.00;12.68;;;20.50;99.90;;;;;;5061556;28;20035;-60
2023/06/22 02:56:31;;;;;;;19.75;12.25;;;20.50;99.90;;;;;;5076739;28;20052;-60
2023/06/22 02:59:00;;;;;;;19.40;12.82;;;20.60;99.90;;;;;;5065492;28;20033;-60
2023/06/22 03:01:30;;;;;;;18.92;13.55;;;20.50;99.90;;;;;;5077948;28;20040;-60
2023/06/22 03:03:56;;;;;;;18.38;13.95;;;20.50;99.90;;;;;;5072474;28;20029;-60
2023/06/22 03:06:23;;;;;;;17.23;13.20;;;20.40;99.90;;;;;;5072340;28;20044;-60
2023/06/22 03:08:49;;;;;;;18.15;13.18;;;20.20;99.90;;;;;;5064556;28;20040;-60
2023/06/22 03:11:15;;;;;;;18.60;13.70;;;20.20;99.90;;;;;;5072709;28;20078;-60
2023/06/22 03:13:40;;;;;;;16.45;13.98;;;20.10;99.90;;;;;;5054968;28;20036;-60
2023/06/22 03:16:06;;;;;;;18.77;14.10;;;20.10;99.90;;;;;;5058353;28;20025;-60
2023/06/22 03:18:31;;;;;;;18.48;14.48;;;20.40;99.90;;;;;;5057069;28;20051;-60
2023/06/22 03:20:57;;;;;;;17.45;14.15;;;20.30;99.90;;;;;;5062841;28;20048;-60
2023/06/22 03:23:22;;;;;;;18.92;14.02;;;20.50;99.90;;;;;;5053529;28;20025;-60
2023/06/22 03:25:48;;;;;;;16.08;14.38;;;20.50;99.90;;;;;;5073897;28;20059;-60
2023/06/22 03:28:14;;;;;;;19.67;14.77;;;20.60;99.90;;;;;;5054262;28;20460;-60
2023/06/22 03:30:39;;;;;;;18.35;14.77;;;20.30;99.90;;;;;;5061587;28;20414;-60
2023/06/22 03:33:05;;;;;;;22.73;14.68;;;20.20;99.90;;;;;;5069120;28;20115;-60
2023/06/22 03:35:30;;;;;;;21.13;14.93;;;20.30;99.90;;;;;;5070527;28;20053;-60
2023/06/22 03:37:56;;;;;;;19.17;15.43;;;20.50;99.90;;;;;;5069802;28;20045;-60
2023/06/22 03:40:21;;;;;;;20.02;15.48;;;20.30;99.90;;;;;;5059197;28;20033;-60
2023/06/22 03:42:47;;;;;;;20.42;15.35;;;20.20;99.90;;;;;;5069580;28;20522;-60
2023/06/22 03:45:13;;;;;;;19.10;15.48;;;20.00;99.90;;;;;;5066725;28;20114;-60
2023/06/22 03:47:39;;;;;;;19.50;15.57;;;20.10;99.90;;;;;;5059780;28;20028;-60
2023/06/22 03:50:05;;;;;;;24.15;15.50;;;20.00;99.90;;;;;;5062501;28;20480;-60
2023/06/22 03:52:31;;;;;;;19.20;14.77;;;19.90;99.90;;;;;;5063674;28;20116;-60
2023/06/22 03:54:57;;;;;;;18.58;14.93;;;20.10;99.90;;;;;;5060727;28;20112;-60
2023/06/22 03:57:22;;;;;;;21.65;15.60;;;20.30;99.90;;;;;;5062122;28;20035;-60
2023/06/22 03:59:48;;;;;;;18.15;14.98;;;20.10;99.90;;;;;;5064807;28;20032;-60
2023/06/22 04:02:13;;;;;;;24.23;16.33;;;20.20;99.90;;;;;;5060988;28;20044;-60
2023/06/22 04:04:39;;;;;;;20.60;16.38;;;20.10;99.90;;;;;;5065311;28;20109;-60
2023/06/22 04:07:05;;;;;;;22.00;16.08;;;20.10;99.90;;;;;;5061350;28;20114;-59
2023/06/22 04:09:31;;;;;;;21.85;16.23;;;20.10;99.90;;;;;;5059962;28;20044;-60
2023/06/22 04:11:56;;;;;;;20.38;16.27;;;20.20;99.90;;;;;;5062056;28;20036;-60
2023/06/22 04:14:22;;;;;;;18.95;15.63;;;20.40;99.90;;;;;;5062240;28;20043;-60
2023/06/22 04:16:47;;;;;;;20.15;15.57;;;20.50;99.90;;;;;;5065780;28;20382;-60
2023/06/22 04:19:16;;;;;;;20.55;16.38;;;20.40;99.90;;;;;;5060068;28;20036;-59
2023/06/22 04:21:44;;;;;;;20.63;16.30;;;20.40;99.90;;;;;;5063558;28;20101;-60
2023/06/22 04:24:10;;;;;;;20.23;15.63;;;20.30;99.90;;;;;;5055570;28;20067;-59
2023/06/22 04:26:36;;;;;;;19.73;16.30;;;20.30;99.90;;;;;;5063749;28;21672;-60
2023/06/22 04:29:05;;;;;;;20.67;15.35;;;20.40;99.90;;;;;;5071039;28;20447;-59
2023/06/22 04:31:36;;;;;;;19.75;16.85;;;20.70;99.90;;;;;;5068921;28;20404;-60
2023/06/22 04:34:07;;;;;;;22.10;16.65;;;20.70;99.90;;;;;;5056894;28;20045;-59
2023/06/22 04:36:40;;;;;;;20.52;16.35;;;20.50;99.90;;;;;;5061528;28;20037;-60
2023/06/22 04:39:10;;;;;;;19.60;15.82;;;20.50;99.90;;;;;;5068517;28;20404;-60
2023/06/22 04:41:43;;;;;;;21.60;16.55;;;20.40;99.90;;;;;;5063725;28;20154;-60
2023/06/22 04:44:23;;;;;;;23.63;16.77;;;20.40;99.90;;;;;;5061516;28;20041;-61
2023/06/22 04:46:54;;;;;;;20.05;15.95;;;20.30;99.90;;;;;;5062631;28;20327;-61
2023/06/22 04:49:21;;;;;;;19.63;15.23;;;20.40;99.90;;;;;;5066338;28;20029;-61
2023/06/22 04:51:46;;;;;;;21.80;15.63;;;20.50;99.90;;;;;;5064092;28;20077;-61
2023/06/22 04:54:12;;;;;;;22.33;16.52;;;20.50;99.90;;;;;;5055824;28;20214;-61
2023/06/22 04:56:40;;;;;;;21.30;16.48;;;20.40;99.90;;;;;;5060791;28;20392;-61
2023/06/22 04:59:06;;;;;;;23.60;16.83;;;20.30;99.90;;;;;;5065222;28;20067;-61
2023/06/22 05:01:31;;;;;;;28.55;16.95;;;20.30;99.90;;;;;;5062493;28;20143;-61
2023/06/22 05:04:00;;;;;;;22.42;15.98;;;20.30;99.90;;;;;;5060585;28;20124;-62
2023/06/22 05:06:26;;;;;;;26.92;17.40;;;20.30;99.90;;;;;;5065390;28;20043;-61
2023/06/22 05:08:57;;;;;;;18.60;15.88;;;20.20;99.90;;;;;;5056338;28;20120;-61
2023/06/22 05:11:26;;;;;;;21.70;16.67;;;20.20;99.90;;;;;;5063409;28;20126;-61
2023/06/22 05:13:53;;;;;;;22.63;16.77;;;20.20;99.90;;;;;;5062121;28;20742;-61
2023/06/22 05:16:23;;;;;;;21.77;17.50;;;20.30;99.90;;;;;;5055950;28;20131;-61
2023/06/22 05:18:53;;;;;;;21.92;17.27;;;20.40;99.90;;;;;;5063791;28;20483;-61
2023/06/22 05:21:24;;;;;;;23.45;17.60;;;20.40;99.90;;;;;;5063913;28;20143;-55
2023/06/22 05:23:51;;;;;;;21.67;17.73;;;20.30;99.90;;;;;;5060735;28;20396;-54
2023/06/22 05:26:17;;;;;;;23.10;18.00;;;20.40;99.90;;;;;;5052389;28;20408;-54
2023/06/22 05:28:45;;;;;;;20.50;17.17;;;20.40;99.90;;;;;;5058979;28;20086;-55
2023/06/22 05:31:14;;;;;;;23.10;17.52;;;20.40;99.90;;;;;;5056660;28;20040;-55
2023/06/22 05:33:43;;;;;;;25.45;18.58;;;20.50;99.90;;;;;;5054114;28;20616;-54
2023/06/22 05:36:10;;;;;;;24.50;18.42;;;20.50;99.90;;;;;;5062919;28;20116;-54
2023/06/22 05:38:36;;;;;;;26.08;18.65;;;20.50;99.90;;;;;;5058281;28;20043;-55
2023/06/22 05:41:02;;;;;;;22.15;18.15;;;20.50;99.90;;;;;;5057149;28;20498;-56
2023/06/22 05:43:28;;;;;;;23.48;18.80;;;20.50;99.90;;;;;;5061466;28;20025;-55
2023/06/22 05:45:54;;;;;;;24.38;18.48;;;20.50;99.90;;;;;;5058389;28;20037;-56
2023/06/22 05:48:19;;;;;;;20.30;17.65;;;20.60;99.90;;;;;;5058229;28;20024;-56
2023/06/22 05:50:45;;;;;;;21.63;17.80;;;20.60;99.90;;;;;;5062095;28;20169;-55
2023/06/22 05:53:10;;;;;;;23.95;17.83;;;20.50;99.90;;;;;;5059969;28;20400;-56
2023/06/22 05:55:36;;;;;;;21.05;18.33;;;20.40;99.90;;;;;;5062615;28;20036;-56
2023/06/22 05:58:03;;;;;;;20.98;17.63;;;20.50;99.90;;;;;;5059792;28;20029;-56
2023/06/22 06:00:29;;;;;;;23.67;17.02;;;20.50;99.90;;;;;;5057444;28;20041;-55
2023/06/22 06:02:54;;;;;;;25.48;17.80;;;20.70;99.90;;;;;;5056411;28;20109;-55
2023/06/22 06:05:20;;;;;;;26.77;17.70;;;20.70;99.90;;;;;;5059915;28;20593;-56
2023/06/22 06:07:46;;;;;;;19.45;17.05;;;20.60;99.90;;;;;;5065147;28;20639;-55
2023/06/22 06:10:12;;;;;;;24.58;17.85;;;20.60;99.90;;;;;;5059367;28;20458;-55
2023/06/22 06:12:38;;;;;;;20.25;16.58;;;20.60;99.90;;;;;;5058436;28;20124;-55
2023/06/22 06:15:04;;;;;;;21.17;16.40;;;20.50;99.90;;;;;;5050479;28;20094;-55
2023/06/22 06:17:30;;;;;;;24.08;16.80;;;20.50;99.90;;;;;;5058241;28;20432;-55
2023/06/22 06:19:56;;;;;;;21.20;16.98;;;20.50;99.90;;;;;;5064500;28;20039;-55
2023/06/22 06:22:23;;;;;;;24.80;16.52;;;20.50;99.90;;;;;;5062891;28;20124;-55
2023/06/22 06:24:49;;;;;;;20.95;15.52;;;20.60;99.90;;;;;;5054447;28;20037;-55
2023/06/22 06:27:15;;;;;;;25.85;16.38;;;20.70;99.90;;;;;;5051757;28;20052;-55
2023/06/22 06:29:40;;;;;;;22.52;16.05;;;21.00;99.90;;;;;;5053962;28;20661;-56
2023/06/22 06:32:06;;;;;;;21.20;16.60;;;20.80;99.90;;;;;;5055592;28;20078;-55
2023/06/22 06:34:32;;;;;;;23.40;16.65;;;20.90;99.90;;;;;;5057290;28;20381;-56
2023/06/22 06:36:57;;;;;;;20.83;15.80;;;20.90;99.90;;;;;;5068547;28;20086;-55
2023/06/22 06:39:23;;;;;;;23.80;16.67;;;20.90;99.90;;;;;;5062356;28;20032;-55
2023/06/22 06:41:48;;;;;;;22.50;16.42;;;21.00;99.90;;;;;;5064321;28;20064;-56
2023/06/22 06:44:14;;;;;;;23.20;15.70;;;20.90;99.90;;;;;;5066034;28;20047;-55
2023/06/22 06:46:41;;;;;;;23.33;15.98;;;21.00;99.90;;;;;;5060688;28;20471;-55
2023/06/22 06:49:07;;;;;;;20.10;15.18;;;21.00;99.90;;;;;;5061781;28;20032;-55
2023/06/22 06:51:32;;;;;;;25.63;16.02;;;21.10;99.90;;;;;;5058825;27;20047;-55
2023/06/22 06:53:58;;;;;;;22.58;15.90;;;21.20;99.90;;;;;;5053143;28;20028;-54
2023/06/22 06:56:23;;;;;;;21.92;16.25;;;21.30;99.90;;;;;;5061158;28;20037;-56
2023/06/22 06:58:50;;;;;;;25.50;15.38;;;21.50;99.90;;;;;;5059466;28;20037;-56
2023/06/22 07:01:16;;;;;;;24.08;16.42;;;21.70;99.90;;;;;;5066474;28;20041;-56
2023/06/22 07:03:42;;;;;;;37.10;28.30;;;21.60;99.90;;;;;;5064060;28;20032;-56
2023/06/22 07:06:09;;;;;;;22.35;15.48;;;21.60;99.90;;;;;;5066176;28;20504;-56
2023/06/22 07:08:36;;;;;;;18.73;14.82;;;21.50;99.90;;;;;;5070623;28;20040;-56
2023/06/22 07:11:02;;;;;;;16.55;13.73;;;21.60;99.90;;;;;;5064687;28;20043;-57
2023/06/22 07:13:28;;;;;;;16.63;14.23;;;21.50;99.90;;;;;;5064388;28;20282;-57
2023/06/22 07:15:53;;;;;;;16.77;12.93;;;21.60;99.90;;;;;;5062167;28;20459;-56
2023/06/22 07:18:19;;;;;;;17.13;12.48;;;21.70;99.90;;;;;;5065427;28;20119;-56
2023/06/22 07:20:44;;;;;;;16.30;13.07;;;21.70;99.90;;;;;;5071973;28;20388;-56
2023/06/22 07:23:10;;;;;;;19.58;13.52;;;21.70;99.90;;;;;;5069032;28;20036;-56
2023/06/22 07:25:36;;;;;;;20.77;13.70;;;21.80;99.90;;;;;;5071450;28;20040;-56
2023/06/22 07:28:04;;;;;;;17.00;12.75;;;21.70;99.90;;;;;;5073422;28;20185;-56
2023/06/22 07:30:31;;;;;;;19.25;14.65;;;21.80;99.90;;;;;;5063279;28;20041;-56
2023/06/22 07:32:57;;;;;;;17.73;14.18;;;21.90;99.90;;;;;;5066037;28;20451;-57
2023/06/22 07:35:23;;;;;;;20.80;14.13;;;22.00;99.90;;;;;;5064994;28;20036;-57
2023/06/22 07:37:49;;;;;;;19.23;13.55;;;22.10;99.90;;;;;;5063688;28;20529;-56
2023/06/22 07:40:15;;;;;;;17.80;13.27;;;22.20;99.90;;;;;;5059727;28;20044;-56
2023/06/22 07:42:40;;;;;;;20.08;13.32;;;22.10;99.90;;;;;;5067396;28;20043;-56
2023/06/22 07:45:08;;;;;;;22.75;14.05;;;22.30;99.90;;;;;;5057134;28;20029;-56
2023/06/22 07:47:35;;;;;;;21.73;16.48;;;22.30;99.90;;;;;;5048049;28;20029;-56
2023/06/22 07:50:01;;;;;;;18.35;14.13;;;22.40;99.90;;;;;;5058836;28;20457;-56
2023/06/22 07:52:28;;;;;;;19.42;14.27;;;22.40;99.90;;;;;;5064141;28;20040;-56
2023/06/22 07:54:53;;;;;;;24.02;14.20;;;22.50;99.90;;;;;;5064823;28;20067;-56
2023/06/22 07:57:20;;;;;;;22.00;14.43;;;22.60;99.90;;;;;;5066051;28;20767;-56
2023/06/22 07:59:45;;;;;;;20.52;15.30;;;22.40;99.90;;;;;;5064352;28;20036;-57
2023/06/22 08:02:11;;;;;;;18.73;15.57;;;22.10;99.90;;;;;;5057832;28;20665;-56
2023/06/22 08:04:37;;;;;;;21.33;15.95;;;21.80;99.90;;;;;;5061326;28;20135;-55
2023/06/22 08:07:03;;;;;;;20.20;16.25;;;21.70;99.90;;;;;;5063808;28;20154;-56
2023/06/22 08:09:31;;;;;;;21.08;16.33;;;21.70;99.90;;;;;;5066133;28;20437;-55
2023/06/22 08:11:57;;;;;;;40.80;34.47;;;21.50;99.90;;;;;;5065792;28;20380;-55
2023/06/22 08:14:27;;;;;;;20.45;17.42;;;21.60;99.90;;;;;;5050801;28;20041;-55
2023/06/22 08:16:52;;;;;;;23.40;18.05;;;21.70;99.90;;;;;;5060998;28;20029;-55
2023/06/22 08:19:18;;;;;;;23.83;17.35;;;21.70;99.90;;;;;;5067555;28;20028;-55
2023/06/22 08:21:44;;;;;;;29.92;17.75;;;21.70;99.90;;;;;;5066669;28;20047;-55
2023/06/22 08:24:09;;;;;;;24.58;17.13;;;21.80;99.90;;;;;;5053279;28;22047;-55
2023/06/22 08:26:37;;;;;;;26.40;17.48;;;21.90;99.90;;;;;;5061300;28;20075;-55
2023/06/22 08:29:03;;;;;;;21.20;16.92;;;22.00;99.90;;;;;;5063427;28;20669;-55
2023/06/22 08:31:30;;;;;;;23.08;17.25;;;22.10;99.90;;;;;;5058719;28;20036;-58
2023/06/22 08:33:55;;;;;;;21.63;18.23;;;22.20;99.90;;;;;;5058302;28;20093;-59
2023/06/22 08:36:21;;;;;;;20.88;17.63;;;22.30;99.90;;;;;;5063203;28;20312;-59
2023/06/22 08:38:51;;;;;;;24.27;18.83;;;22.30;99.90;;;;;;5065084;28;20049;-58
2023/06/22 08:41:18;;;;;;;24.10;18.58;;;22.30;99.90;;;;;;5064310;28;20063;-58
2023/06/22 08:43:47;;;;;;;26.58;18.30;;;22.30;99.90;;;;;;5066984;28;20024;-59
2023/06/22 08:46:12;;;;;;;23.65;16.90;;;22.40;99.90;;;;;;5066270;28;20047;-59
2023/06/22 08:48:38;;;;;;;20.25;17.48;;;23.40;99.90;;;;;;5061726;28;20112;-59
2023/06/22 08:51:05;;;;;;;27.25;18.42;;;22.70;99.90;;;;;;5067375;28;20025;-58
2023/06/22 08:53:30;;;;;;;22.92;18.80;;;22.60;99.90;;;;;;5061639;28;20035;-58
2023/06/22 08:55:56;;;;;;;29.85;18.83;;;22.30;99.90;;;;;;5057224;28;20020;-59
2023/06/22 08:58:21;;;;;;;24.73;18.92;;;22.60;99.90;;;;;;5066320;28;20067;-58
2023/06/22 09:00:48;;;;;;;24.38;18.83;;;22.20;99.90;;;;;;5067811;28;20424;-57
2023/06/22 09:03:14;;;;;;;26.65;18.30;;;22.20;99.90;;;;;;5065634;28;20626;-57
2023/06/22 09:05:39;;;;;;;23.23;17.17;;;22.20;99.90;;;;;;5064754;28;20052;-57
2023/06/22 09:08:05;;;;;;;25.63;19.20;;;22.50;99.90;;;;;;5066712;28;20071;-58
2023/06/22 09:10:30;;;;;;;25.65;19.23;;;22.70;99.90;;;;;;5065743;28;20044;-58
2023/06/22 09:12:57;;;;;;;31.58;20.38;;;22.70;99.90;;;;;;5067081;28;20040;-58
2023/06/22 09:15:22;;;;;;;27.77;19.05;;;22.60;99.90;;;;;;5067153;28;20059;-57
2023/06/22 09:17:48;;;;;;;27.88;20.75;;;22.60;99.90;;;;;;5067484;28;20504;-57
2023/06/22 09:20:15;;;;;;;24.25;18.33;;;22.70;99.90;;;;;;5065476;28;20036;-58
2023/06/22 09:22:41;;;;;;;27.55;19.20;;;22.90;99.90;;;;;;5068299;28;20031;-57
2023/06/22 09:25:07;;;;;;;27.05;19.15;;;23.20;99.90;;;;;;5060538;28;20036;-58
2023/06/22 09:27:32;;;;;;;22.48;18.77;;;23.40;99.90;;;;;;5069068;28;20054;-57
2023/06/22 09:29:58;;;;;;;21.80;18.48;;;23.00;99.90;;;;;;5070148;28;20515;-57
2023/06/22 09:32:25;;;;;;;23.45;18.88;;;22.90;99.90;;;;;;5061466;28;20619;-57
2023/06/22 09:34:51;;;;;;;22.15;18.70;;;23.20;99.90;;;;;;5058577;28;20151;-57
2023/06/22 09:37:17;;;;;;;24.83;19.17;;;23.50;99.90;;;;;;5069283;28;20119;-58
2023/06/22 09:39:42;;;;;;;23.23;19.95;;;23.50;99.90;;;;;;5065868;28;20035;-57
2023/06/22 09:42:08;;;;;;;27.05;19.83;;;23.30;99.90;;;;;;5062589;28;20086;-57
2023/06/22 09:44:33;;;;;;;23.40;18.58;;;23.20;99.90;;;;;;5066969;28;20362;-57
2023/06/22 09:47:00;;;;;;;23.83;19.42;;;23.50;99.90;;;;;;5064594;28;20051;-57
2023/06/22 09:49:26;;;;;;;24.63;19.10;;;23.70;99.90;;;;;;5063759;28;20124;-57
2023/06/22 09:51:52;;;;;;;25.65;19.35;;;23.80;99.90;;;;;;5066825;28;20490;-57
2023/06/22 09:54:18;;;;;;;22.85;18.67;;;23.70;99.90;;;;;;5064586;28;20444;-58
2023/06/22 09:56:43;;;;;;;23.48;17.83;;;23.90;99.90;;;;;;5071227;28;20168;-58
2023/06/22 09:59:09;;;;;;;27.10;19.63;;;24.20;99.90;;;;;;5068166;28;20194;-57
2023/06/22 10:01:35;;;;;;;24.52;19.73;;;24.20;99.90;;;;;;5070521;28;20131;-57
2023/06/22 10:04:02;;;;;;;22.45;18.25;;;24.40;99.90;;;;;;5067802;28;20418;-57
2023/06/22 10:06:27;;;;;;;23.33;19.17;;;24.50;99.90;;;;;;5066984;28;20036;-57
2023/06/22 10:08:53;;;;;;;23.30;19.95;;;24.60;99.90;;;;;;5067185;28;20036;-56
2023/06/22 10:11:19;;;;;;;21.42;18.85;;;24.40;99.90;;;;;;5083114;28;20106;-56
2023/06/22 10:13:44;;;;;;;22.33;18.38;;;24.30;99.90;;;;;;5064933;28;20028;-57
2023/06/22 10:16:10;;;;;;;23.17;18.00;;;24.20;99.90;;;;;;5065014;28;20041;-58
2023/06/22 10:18:36;;;;;;;23.48;18.30;;;24.20;99.90;;;;;;5063769;28;20042;-58
2023/06/22 10:21:02;;;;;;;22.92;18.10;;;24.30;99.90;;;;;;5067405;28;20116;-59
2023/06/22 10:23:27;;;;;;;23.60;18.90;;;24.50;99.90;;;;;;5067585;28;20037;-58
2023/06/22 10:25:53;;;;;;;22.83;18.65;;;24.40;99.90;;;;;;5069347;28;20024;-57
2023/06/22 10:28:19;;;;;;;24.00;18.38;;;24.40;99.90;;;;;;5065133;28;20040;-57
2023/06/22 10:30:44;;;;;;;26.20;19.92;;;24.40;99.90;;;;;;5056078;28;20044;-57
2023/06/22 10:33:11;;;;;;;27.00;19.95;;;24.40;99.90;;;;;;5062007;28;20450;-58
2023/06/22 10:35:37;;;;;;;22.02;19.65;;;24.30;99.90;;;;;;5072288;28;20032;-58
2023/06/22 10:38:04;;;;;;;23.83;20.90;;;24.30;99.90;;;;;;5068217;28;20032;-58
2023/06/22 10:40:30;;;;;;;24.08;20.10;;;24.20;99.90;;;;;;5058460;28;20424;-57
2023/06/22 10:42:56;;;;;;;26.85;20.27;;;24.10;99.90;;;;;;5068073;28;20036;-57
2023/06/22 10:45:21;;;;;;;23.23;19.50;;;24.00;99.90;;;;;;5062016;28;20068;-58
2023/06/22 10:47:47;;;;;;;21.63;19.33;;;24.10;99.90;;;;;;5063775;28;20032;-57
2023/06/22 10:50:13;;;;;;;25.02;19.73;;;23.90;99.90;;;;;;5061157;28;20041;-58
2023/06/22 10:52:41;;;;;;;23.08;18.67;;;23.90;99.90;;;;;;5054308;28;20069;-58
2023/06/22 10:55:08;;;;;;;24.33;18.45;;;23.90;99.90;;;;;;5058642;28;20443;-58
2023/06/22 10:57:33;;;;;;;22.08;18.05;;;23.70;99.90;;;;;;5058886;28;20037;-57
2023/06/22 10:59:59;;;;;;;24.73;18.67;;;23.70;99.90;;;;;;5063202;28;20066;-57
2023/06/22 11:02:24;;;;;;;27.00;19.83;;;23.60;99.90;;;;;;5063080;28;20109;-57
2023/06/22 11:04:50;;;;;;;26.67;19.30;;;23.60;99.90;;;;;;5065975;28;20036;-57
2023/06/22 11:07:16;;;;;;;24.75;19.65;;;23.70;99.90;;;;;;5066159;28;20024;-57
2023/06/22 11:09:43;;;;;;;29.35;20.77;;;23.60;99.90;;;;;;5066505;28;20572;-56
2023/06/22 11:12:09;;;;;;;32.00;20.50;;;23.50;99.90;;;;;;5067669;28;20500;-57
2023/06/22 11:14:34;;;;;;;30.75;21.55;;;23.50;99.90;;;;;;5064734;28;20025;-57
2023/06/22 11:17:00;;;;;;;30.83;20.42;;;23.50;99.90;;;;;;5062450;28;20075;-56
2023/06/22 11:19:26;;;;;;;28.30;21.23;;;23.80;99.90;;;;;;5066557;28;20036;-56
2023/06/22 11:21:51;;;;;;;28.80;21.20;;;23.50;99.90;;;;;;5066232;28;20397;-57
2023/06/22 11:24:17;;;;;;;30.25;20.73;;;23.80;99.90;;;;;;5064146;28;20476;-56
2023/06/22 11:26:43;;;;;;;32.35;21.48;;;23.70;99.90;;;;;;5068583;28;20033;-56
2023/06/22 11:29:09;;;;;;;34.83;23.98;;;23.90;99.90;;;;;;5050784;28;20041;-57
2023/06/22 11:31:35;;;;;;;34.80;23.92;;;23.50;99.90;;;;;;5061534;28;20032;-56
2023/06/22 11:34:01;;;;;;;34.08;24.27;;;23.10;99.90;;;;;;5068860;28;20645;-56
2023/06/22 11:36:27;;;;;;;37.15;25.65;;;23.30;99.90;;;;;;5065862;28;20025;-57
2023/06/22 11:38:52;;;;;;;39.63;28.13;;;23.50;99.90;;;;;;5068245;28;20063;-57
2023/06/22 11:41:18;;;;;;;35.05;28.60;;;23.30;99.90;;;;;;5064757;28;20033;-55
2023/06/22 11:43:44;;;;;;;39.95;29.13;;;22.20;99.90;;;;;;5069163;28;20053;-55
2023/06/22 11:46:10;;;;;;;36.63;29.73;;;22.30;99.90;;;;;;5063207;28;20032;-55
2023/06/22 11:48:36;;;;;;;38.75;31.65;;;21.70;99.90;;;;;;5068279;28;20036;-55
2023/06/22 11:51:03;;;;;;;43.80;34.78;;;21.70;99.90;;;;;;5068119;28;20029;-55
2023/06/22 11:53:29;;;;;;;41.67;33.67;;;21.70;99.90;;;;;;5067792;28;20046;-55
2023/06/22 11:55:55;;;;;;;42.10;35.47;;;21.70;99.90;;;;;;5059174;28;20036;-55
2023/06/22 11:58:21;;;;;;;43.22;35.00;;;21.70;99.90;;;;;;5069147;28;20036;-55
2023/06/22 12:00:47;;;;;;;37.67;33.10;;;21.60;99.90;;;;;;5064728;28;20039;-55
2023/06/22 12:03:14;;;;;;;44.17;35.03;;;21.50;99.90;;;;;;5066739;28;20041;-54
2023/06/22 12:05:40;;;;;;;37.75;33.50;;;21.60;99.90;;;;;;5064731;28;20032;-55
2023/06/22 12:08:06;;;;;;;39.10;34.80;;;21.60;99.90;;;;;;5068038;28;20518;-55
2023/06/22 12:10:31;;;;;;;43.53;35.20;;;21.70;99.90;;;;;;5063456;28;20037;-55
2023/06/22 12:12:58;;;;;;;40.60;35.78;;;21.60;99.90;;;;;;5069343;28;20040;-55
2023/06/22 12:15:24;;;;;;;40.67;36.35;;;21.70;99.90;;;;;;5065983;28;20047;-55
2023/06/22 12:17:49;;;;;;;43.42;37.03;;;21.80;99.90;;;;;;5066880;28;20032;-55
2023/06/22 12:20:15;;;;;;;40.40;36.05;;;22.00;99.90;;;;;;5068164;28;20068;-55
2023/06/22 12:22:41;;;;;;;43.00;37.78;;;22.50;99.90;;;;;;5066039;28;20089;-56
2023/06/22 12:25:08;;;;;;;48.00;40.25;;;22.30;99.90;;;;;;5065053;28;20037;-56
2023/06/22 12:27:34;;;;;;;45.85;40.03;;;22.60;99.90;;;;;;5065798;28;20052;-56